createdAt,value
2018-01-08T00:00:50.451Z,77.40
2018-01-08T00:03:18.388Z,77.90
2018-01-08T00:05:50.726Z,77.70
2018-01-08T00:08:18.999Z,77.70
2018-01-08T00:10:49.575Z,77.60
2018-01-08T00:13:17.881Z,78.30
2018-01-08T00:15:46.667Z,77.40
2018-01-08T00:18:15.253Z,77.30
2018-01-08T00:20:44.778Z,78.20
2018-01-08T00:23:13.216Z,78.20
2018-01-08T00:25:41.297Z,78.40
2018-01-08T00:28:10.012Z,79.40
2018-01-08T00:30:38.094Z,78.70
2018-01-08T00:33:06.827Z,78.80
2018-01-08T00:35:34.892Z,78.40
2018-01-08T00:38:02.914Z,78.30
2018-01-08T00:40:31.020Z,78.50
2018-01-08T00:42:59.194Z,78.80
2018-01-08T00:45:27.350Z,78.50
2018-01-08T00:47:55.351Z,78.40
2018-01-08T00:50:41.056Z,78.60
2018-01-08T00:53:22.525Z,78.10
2018-01-08T00:55:51.562Z,78.30
2018-01-08T00:58:20.426Z,78.30
2018-01-08T01:00:48.480Z,78.20
2018-01-08T01:03:38.994Z,78.60
2018-01-08T01:09:44.437Z,78.10
2018-01-08T01:12:13.427Z,78.20
2018-01-08T01:14:42.852Z,78.00
2018-01-08T01:17:14.599Z,78.60
2018-01-08T01:19:42.628Z,78.50
2018-01-08T01:22:10.490Z,78.60
2018-01-08T01:24:38.514Z,78.70
2018-01-08T01:27:07.710Z,78.50
2018-01-08T01:29:35.574Z,78.80
2018-01-08T01:32:03.640Z,78.60
2018-01-08T01:34:32.464Z,78.40
2018-01-08T01:37:02.256Z,78.30
2018-01-08T01:41:58.155Z,78.40
2018-01-08T01:44:26.173Z,78.80
2018-01-08T01:46:54.813Z,78.50
2018-01-08T01:49:23.242Z,78.40
2018-01-08T01:51:51.190Z,78.60
2018-01-08T01:54:19.538Z,78.50
2018-01-08T01:56:48.302Z,78.00
2018-01-08T01:59:17.203Z,78.00
2018-01-08T02:01:47.732Z,78.00
2018-01-08T02:04:16.524Z,78.00
2018-01-08T02:06:44.935Z,77.90
2018-01-08T02:09:13.040Z,77.70
2018-01-08T02:11:41.936Z,77.80
2018-01-08T02:14:11.212Z,77.70
2018-01-08T02:16:39.313Z,78.20
2018-01-08T02:19:07.477Z,78.10
2018-01-08T02:21:38.074Z,77.80
2018-01-08T02:24:07.723Z,78.00
2018-01-08T02:26:37.173Z,77.90
2018-01-08T02:29:09.434Z,78.00
2018-01-08T02:31:38.334Z,78.00
2018-01-08T02:34:07.267Z,77.40
2018-01-08T02:36:35.383Z,77.40
2018-01-08T02:39:03.494Z,77.90
2018-01-08T02:41:31.596Z,78.30
2018-01-08T02:43:59.847Z,78.20
2018-01-08T02:46:33.597Z,78.00
2018-01-08T02:49:01.899Z,78.30
2018-01-08T02:51:30.112Z,78.10
2018-01-08T02:54:01.395Z,77.90
2018-01-08T02:56:31.914Z,78.10
2018-01-08T02:59:00.890Z,78.30
2018-01-08T03:01:28.890Z,77.80
2018-01-08T03:03:56.797Z,77.30
2018-01-08T03:06:26.657Z,77.30
2018-01-08T03:08:54.790Z,77.30
2018-01-08T03:11:25.648Z,77.60
2018-01-08T03:13:54.096Z,77.60
2018-01-08T03:16:22.822Z,77.60
2018-01-08T03:18:51.003Z,77.60
2018-01-08T03:21:19.234Z,77.80
2018-01-08T03:23:48.096Z,77.90
2018-01-08T03:26:16.708Z,78.00
2018-01-08T03:28:44.817Z,78.10
2018-01-08T03:31:14.923Z,78.30
2018-01-08T03:33:54.166Z,77.90
2018-01-08T03:39:20.771Z,78.20
2018-01-08T03:41:49.443Z,78.20
2018-01-08T03:44:21.473Z,78.10
2018-01-08T03:46:50.293Z,78.50
2018-01-08T03:49:28.615Z,78.40
2018-01-08T03:51:56.846Z,78.60
2018-01-08T03:54:25.485Z,78.50
2018-01-08T03:56:53.733Z,78.20
2018-01-08T03:59:21.837Z,78.10
2018-01-08T04:01:49.843Z,78.20
2018-01-08T04:04:17.981Z,78.10
2018-01-08T04:06:46.085Z,78.30
2018-01-08T04:09:14.013Z,78.20
2018-01-08T04:11:42.122Z,78.00
2018-01-08T04:14:10.834Z,77.90
2018-01-08T04:16:38.981Z,77.90
2018-01-08T04:19:07.074Z,77.80
2018-01-08T04:21:36.069Z,78.10
2018-01-08T04:26:48.895Z,78.20
2018-01-08T04:29:17.609Z,78.90
2018-01-08T04:31:46.300Z,78.20
2018-01-08T04:34:14.383Z,78.20
2018-01-08T04:36:42.393Z,78.30
2018-01-08T04:39:10.927Z,78.60
2018-01-08T04:41:39.604Z,78.80
2018-01-08T04:44:08.480Z,78.80
2018-01-08T04:46:39.469Z,78.80
2018-01-08T04:49:07.699Z,78.50
2018-01-08T04:51:35.950Z,78.30
2018-01-08T04:54:04.302Z,78.40
2018-01-08T04:56:33.727Z,78.40
2018-01-08T04:59:01.986Z,78.30
2018-01-08T05:01:29.964Z,78.40
2018-01-08T05:03:58.216Z,78.30
2018-01-08T05:06:26.636Z,78.50
2018-01-08T05:08:54.670Z,78.70
2018-01-08T05:11:22.843Z,78.80
2018-01-08T05:13:51.762Z,78.60
2018-01-08T05:16:19.954Z,78.50
2018-01-08T05:18:48.132Z,78.30
2018-01-08T05:21:16.262Z,78.70
2018-01-08T05:23:45.110Z,78.30
2018-01-08T05:26:13.537Z,78.10
2018-01-08T05:28:42.146Z,78.20
2018-01-08T05:31:12.629Z,77.80
2018-01-08T05:33:40.746Z,77.90
2018-01-08T05:36:12.684Z,78.10
2018-01-08T05:38:40.852Z,77.80
2018-01-08T05:41:09.799Z,77.80
2018-01-08T05:43:39.118Z,77.50
2018-01-08T05:46:08.258Z,77.50
2018-01-08T05:48:36.365Z,77.50
2018-01-08T05:51:05.358Z,77.20
2018-01-08T05:53:33.860Z,77.10
2018-01-08T05:56:04.316Z,77.20
2018-01-08T05:58:32.247Z,77.30
2018-01-08T06:01:00.234Z,77.00
2018-01-08T06:03:29.371Z,77.00
2018-01-08T06:05:57.412Z,77.30
2018-01-08T06:08:25.411Z,77.10
2018-01-08T06:10:53.362Z,77.00
2018-01-08T06:13:21.682Z,77.40
2018-01-08T06:15:51.785Z,77.30
2018-01-08T06:18:19.814Z,76.60
2018-01-08T06:20:48.635Z,76.80
2018-01-08T06:23:19.524Z,76.80
2018-01-08T06:25:57.338Z,76.80
2018-01-08T06:28:28.400Z,76.90
2018-01-08T06:30:56.805Z,76.90
2018-01-08T06:33:24.843Z,77.10
2018-01-08T06:36:03.268Z,77.20
2018-01-08T06:38:33.859Z,77.10
2018-01-08T06:41:02.041Z,77.00
2018-01-08T06:43:36.999Z,77.30
2018-01-08T06:46:08.653Z,77.40
2018-01-08T06:48:55.940Z,77.30
2018-01-08T06:51:23.935Z,77.10
2018-01-08T06:53:52.527Z,77.10
2018-01-08T06:56:33.599Z,77.60
2018-01-08T06:59:02.418Z,77.20
2018-01-08T07:01:32.014Z,77.10
2018-01-08T07:05:10.832Z,77.30
2018-01-08T07:07:39.777Z,77.30
2018-01-08T07:10:08.321Z,76.80
2018-01-08T07:12:41.494Z,76.90
2018-01-08T07:15:14.574Z,76.90
2018-01-08T07:17:43.741Z,76.70
2018-01-08T07:20:50.401Z,76.80
2018-01-08T07:23:19.524Z,77.10
2018-01-08T07:25:48.094Z,76.80
2018-01-08T07:28:16.272Z,77.10
2018-01-08T07:30:44.447Z,77.20
2018-01-08T07:33:12.614Z,77.10
2018-01-08T07:35:50.263Z,77.20
2018-01-08T07:38:18.932Z,77.00
2018-01-08T07:41:08.070Z,77.00
2018-01-08T07:43:52.974Z,77.30
2018-01-08T07:46:29.825Z,77.00
2018-01-08T07:51:36.020Z,77.00
2018-01-08T07:54:03.901Z,76.90
2018-01-08T07:56:32.353Z,77.00
2018-01-08T07:59:00.309Z,77.10
2018-01-08T08:01:31.898Z,76.90
2018-01-08T08:04:05.580Z,76.90
2018-01-08T08:06:33.612Z,76.80
2018-01-08T08:09:01.779Z,76.50
2018-01-08T08:11:32.865Z,76.70
2018-01-08T08:14:38.312Z,77.00
2018-01-08T08:17:08.099Z,76.80
2018-01-08T08:19:37.003Z,76.80
2018-01-08T08:22:12.878Z,76.80
2018-01-08T08:24:41.297Z,76.90
2018-01-08T08:27:10.561Z,76.90
2018-01-08T08:29:39.318Z,76.80
2018-01-08T08:32:32.327Z,76.90
2018-01-08T08:35:01.560Z,76.80
2018-01-08T08:37:46.887Z,77.00
2018-01-08T08:40:20.777Z,76.80
2018-01-08T08:43:08.902Z,76.80
2018-01-08T08:45:38.174Z,76.80
2018-01-08T08:48:07.143Z,76.70
2018-01-08T08:50:35.775Z,76.70
2018-01-08T08:53:03.869Z,76.70
2018-01-08T08:55:35.470Z,77.10
2018-01-08T08:58:05.904Z,77.00
2018-01-08T09:00:33.828Z,76.80
2018-01-08T09:03:03.300Z,76.70
2018-01-08T09:05:31.914Z,76.70
2018-01-08T09:08:02.827Z,76.00
2018-01-08T09:10:33.187Z,76.40
2018-01-08T09:13:01.746Z,76.40
2018-01-08T09:15:29.672Z,76.30
2018-01-08T09:17:58.134Z,76.40
2018-01-08T09:20:27.096Z,75.90
2018-01-08T09:22:58.270Z,75.70
2018-01-08T09:25:26.450Z,76.10
2018-01-08T09:27:54.599Z,76.00
2018-01-08T09:30:22.640Z,75.90
2018-01-08T09:33:01.718Z,75.80
2018-01-08T09:35:35.745Z,75.00
2018-01-08T09:38:05.380Z,74.50
2018-01-08T09:40:33.556Z,74.50
2018-01-08T09:43:02.159Z,75.40
2018-01-08T09:45:32.309Z,74.80
2018-01-08T09:48:02.119Z,74.60
2018-01-08T09:50:34.540Z,74.60
2018-01-08T09:53:02.798Z,74.60
2018-01-08T09:55:40.432Z,74.70
2018-01-08T09:58:13.028Z,74.80
2018-01-08T10:00:45.484Z,74.70
2018-01-08T10:03:25.541Z,75.30
2018-01-08T10:06:04.716Z,75.20
2018-01-08T10:18:25.265Z,75.30
2018-01-08T10:21:24.894Z,75.90
2018-01-08T10:23:52.950Z,75.50
2018-01-08T10:26:31.700Z,75.00
2018-01-08T10:29:00.854Z,74.70
2018-01-08T10:31:29.043Z,74.10
2018-01-08T10:34:04.815Z,74.60
2018-01-08T10:36:33.772Z,74.10
2018-01-08T10:39:02.089Z,74.20
2018-01-08T10:41:36.512Z,74.20
2018-01-08T10:44:13.465Z,74.60
2018-01-08T10:46:47.995Z,74.50
2018-01-08T10:49:23.051Z,74.50
2018-01-08T10:52:00.294Z,75.00
2018-01-08T10:57:09.834Z,75.30
2018-01-08T10:59:39.545Z,75.40
2018-01-08T11:02:12.614Z,76.20
2018-01-08T11:04:40.699Z,75.60
2018-01-08T11:07:08.623Z,74.60
2018-01-08T11:09:39.091Z,74.00
2018-01-08T11:12:10.004Z,74.60
2018-01-08T11:14:47.179Z,74.50
2018-01-08T11:17:18.458Z,74.60
2018-01-08T11:19:50.310Z,73.50
2018-01-08T11:22:18.836Z,73.50
2018-01-08T11:24:46.862Z,73.50
2018-01-08T11:27:28.616Z,73.10
2018-01-08T11:29:57.507Z,73.00
2018-01-08T11:32:27.144Z,72.90
2018-01-08T11:34:55.245Z,73.20
2018-01-08T11:41:02.470Z,73.20
2018-01-08T11:43:31.770Z,73.50
2018-01-08T11:46:27.693Z,73.70
2018-01-08T11:54:11.046Z,74.00
2018-01-08T11:56:42.874Z,74.20
2018-01-08T11:59:17.942Z,74.10
2018-01-08T12:01:56.851Z,74.40
2018-01-08T12:04:35.793Z,73.90
2018-01-08T12:07:36.084Z,74.30
2018-01-08T12:10:06.623Z,73.90
2018-01-08T12:13:11.361Z,74.10
2018-01-08T12:15:40.340Z,74.30
2018-01-08T12:18:10.144Z,74.50
2018-01-08T12:20:39.524Z,74.00
2018-01-08T12:23:10.004Z,74.00
2018-01-08T12:25:43.713Z,73.70
2018-01-08T12:28:16.093Z,73.70
2018-01-08T12:30:58.808Z,74.20
2018-01-08T12:33:36.199Z,74.20
2018-01-08T12:36:23.623Z,74.00
2018-01-08T12:38:53.177Z,74.00
2018-01-08T12:41:22.715Z,73.40
2018-01-08T12:43:59.721Z,73.30
2018-01-08T12:46:29.823Z,74.10
2018-01-08T12:49:03.061Z,73.50
2018-01-08T12:51:47.019Z,74.00
2018-01-08T12:54:18.288Z,73.80
2018-01-08T12:56:55.778Z,74.70
2018-01-08T13:02:46.839Z,74.40
2018-01-08T13:05:15.659Z,74.90
2018-01-08T13:07:45.611Z,74.70
2018-01-08T13:10:17.466Z,75.30
2018-01-08T13:12:45.499Z,75.30
2018-01-08T13:15:46.551Z,75.30
2018-01-08T13:18:18.634Z,74.40
2018-01-08T13:24:16.040Z,74.90
2018-01-08T13:26:45.575Z,74.90
2018-01-08T13:29:16.725Z,74.90
2018-01-08T13:32:05.235Z,74.70
2018-01-08T13:34:36.341Z,74.90
2018-01-08T13:37:04.916Z,74.90
2018-01-08T13:39:37.215Z,74.60
2018-01-08T13:42:07.328Z,74.50
2018-01-08T13:44:36.608Z,74.40
2018-01-08T13:50:26.839Z,74.60
2018-01-08T13:52:56.016Z,74.60
2018-01-08T13:59:31.605Z,74.30
2018-01-08T14:02:08.533Z,73.90
2018-01-08T14:04:38.074Z,73.80
2018-01-08T14:07:09.690Z,73.70
2018-01-08T14:09:43.547Z,73.20
2018-01-08T14:12:15.349Z,73.20
2018-01-08T14:14:53.594Z,73.10
2018-01-08T14:17:22.792Z,73.30
2018-01-08T14:20:26.654Z,73.20
2018-01-08T14:23:03.150Z,73.50
2018-01-08T14:25:46.733Z,73.50
2018-01-08T14:28:24.250Z,73.90
2018-01-08T14:30:55.975Z,74.00
2018-01-08T14:33:28.032Z,74.00
2018-01-08T14:35:58.727Z,74.30
2018-01-08T14:42:06.894Z,75.10
2018-01-08T14:44:38.254Z,75.00
2018-01-08T14:47:15.885Z,74.90
2018-01-08T14:50:20.896Z,75.10
2018-01-08T14:54:12.692Z,75.10
2018-01-08T14:57:06.437Z,75.90
2018-01-08T14:59:38.527Z,75.50
2018-01-08T15:02:12.094Z,75.70
2018-01-08T15:04:45.367Z,75.10
2018-01-08T15:07:35.174Z,75.20
2018-01-08T15:10:05.817Z,75.30
2018-01-08T15:12:35.352Z,75.60
2018-01-08T15:15:05.898Z,75.50
2018-01-08T15:17:34.286Z,75.80
2018-01-08T15:20:05.667Z,75.90
2018-01-08T15:22:35.360Z,76.10
2018-01-08T15:25:21.989Z,76.10
2018-01-08T15:27:58.284Z,76.40
2018-01-08T15:31:00.976Z,76.30
2018-01-08T15:33:36.672Z,76.70
2018-01-08T15:36:07.130Z,76.90
2018-01-08T15:38:40.324Z,77.00
2018-01-08T15:41:14.501Z,77.40
2018-01-08T15:43:43.295Z,77.40
2018-01-08T15:49:34.256Z,77.10
2018-01-08T15:52:17.216Z,77.40
2018-01-08T15:54:56.631Z,77.40
2018-01-08T15:57:33.390Z,77.60
2018-01-08T16:00:43.059Z,77.40
2018-01-08T16:03:23.851Z,77.60
2018-01-08T16:06:28.454Z,77.60
2018-01-08T16:09:00.519Z,78.00
2018-01-08T16:11:40.670Z,78.00
2018-01-08T16:14:17.128Z,78.20
2018-01-08T16:16:50.182Z,78.40
2018-01-08T16:19:23.330Z,78.50
2018-01-08T16:21:57.099Z,78.50
2018-01-08T16:28:33.205Z,78.30
2018-01-08T16:31:09.648Z,78.00
2018-01-08T16:33:39.068Z,77.60
2018-01-08T16:36:17.638Z,77.90
2018-01-08T16:38:47.080Z,78.20
2018-01-08T16:41:16.915Z,78.20
2018-01-08T16:43:46.933Z,78.30
2018-01-08T16:46:14.975Z,78.40
2018-01-08T16:48:43.955Z,78.60
2018-01-08T16:51:12.379Z,79.00
2018-01-08T16:53:40.809Z,79.10
2018-01-08T16:56:09.274Z,78.50
2018-01-08T16:58:41.362Z,78.50
2018-01-08T17:01:18.521Z,79.40
2018-01-08T17:03:56.154Z,79.30
2018-01-08T17:06:24.247Z,78.60
2018-01-08T17:09:05.013Z,79.00
2018-01-08T17:11:42.289Z,79.10
2018-01-08T17:14:17.814Z,79.00
2018-01-08T17:16:50.333Z,79.10
2018-01-08T17:19:21.302Z,78.60
2018-01-08T17:21:52.479Z,78.40
2018-01-08T17:24:22.368Z,78.10
2018-01-08T17:26:51.266Z,76.80
2018-01-08T17:29:57.028Z,76.80
2018-01-08T17:32:36.037Z,77.20
2018-01-08T17:35:10.569Z,78.00
2018-01-08T17:37:42.986Z,78.50
2018-01-08T17:40:21.878Z,79.00
2018-01-08T17:43:15.052Z,79.40
2018-01-08T17:46:08.266Z,79.40
2018-01-08T17:48:41.091Z,79.20
2018-01-08T17:51:22.074Z,78.70
2018-01-08T17:53:53.394Z,78.10
2018-01-08T17:57:01.333Z,77.30
2018-01-08T17:59:50.204Z,77.80
2018-01-08T18:05:43.880Z,78.30
2018-01-08T18:08:16.215Z,78.50
2018-01-08T18:10:45.491Z,78.30
2018-01-08T18:13:45.308Z,78.50
2018-01-08T18:16:29.376Z,78.50
2018-01-08T18:19:14.183Z,78.50
2018-01-08T18:22:32.968Z,78.60
2018-01-08T18:25:08.015Z,78.90
2018-01-08T18:27:40.340Z,78.40
2018-01-08T18:30:09.448Z,78.50
2018-01-08T18:32:38.339Z,78.90
2018-01-08T18:35:08.901Z,78.70
2018-01-08T18:41:38.226Z,79.20
2018-01-08T18:44:08.020Z,79.20
2018-01-08T18:46:46.794Z,78.70
2018-01-08T18:49:15.949Z,78.90
2018-01-08T18:51:47.394Z,78.60
2018-01-08T18:54:17.522Z,78.30
2018-01-08T18:56:47.576Z,78.80
2018-01-08T18:59:35.055Z,78.90
2018-01-08T19:02:04.995Z,79.20
2018-01-08T19:04:33.777Z,78.90
2018-01-08T19:07:07.680Z,78.90
2018-01-08T19:09:36.657Z,78.90
2018-01-08T19:12:15.491Z,78.80
2018-01-08T19:14:44.170Z,78.80
2018-01-08T19:17:14.162Z,78.80
2018-01-08T19:19:49.771Z,78.60
2018-01-08T19:22:18.554Z,78.60
2018-01-08T19:24:47.249Z,78.70
2018-01-08T19:27:15.817Z,78.80
2018-01-08T19:30:05.724Z,79.70
2018-01-08T19:32:36.469Z,79.00
2018-01-08T19:35:06.510Z,78.90
2018-01-08T19:37:36.347Z,78.90
2018-01-08T19:40:05.349Z,79.10
2018-01-08T19:42:58.214Z,79.10
2018-01-08T19:45:28.369Z,78.90
2018-01-08T19:48:00.083Z,78.90
2018-01-08T19:50:29.553Z,78.80
2018-01-08T19:53:00.500Z,78.90
2018-01-08T19:55:37.836Z,78.90
2018-01-08T19:58:19.680Z,78.90
2018-01-08T20:00:50.346Z,78.60
2018-01-08T20:03:24.191Z,78.50
2018-01-08T20:05:55.480Z,78.50
2018-01-08T20:08:25.236Z,78.30
2018-01-08T20:10:56.376Z,78.00
2018-01-08T20:13:27.793Z,78.50
2018-01-08T20:15:57.620Z,78.50
2018-01-08T20:18:32.724Z,78.50
2018-01-08T20:21:28.612Z,78.40
2018-01-08T20:24:03.218Z,78.50
2018-01-08T20:29:04.992Z,78.30
2018-01-08T20:31:36.838Z,78.70
2018-01-08T20:34:08.737Z,78.80
2018-01-08T20:36:38.406Z,78.90
2018-01-08T20:39:10.747Z,78.90
2018-01-08T20:41:53.664Z,78.60
2018-01-08T20:44:27.080Z,78.70
2018-01-08T20:46:58.025Z,79.10
2018-01-08T20:49:27.434Z,79.80
2018-01-08T20:51:56.961Z,79.10
2018-01-08T20:54:26.354Z,78.90
2018-01-08T20:56:55.959Z,78.70
2018-01-08T20:59:30.493Z,78.60
2018-01-08T21:02:02.882Z,78.30
2018-01-08T21:04:32.009Z,78.40
2018-01-08T21:07:07.012Z,78.70
2018-01-08T21:10:04.840Z,78.70
2018-01-08T21:12:36.365Z,78.80
2018-01-08T21:15:06.345Z,79.10
2018-01-08T21:17:37.254Z,79.40
2018-01-08T21:20:06.070Z,79.00
2018-01-08T21:22:36.195Z,78.50
2018-01-08T21:25:06.387Z,78.80
2018-01-08T21:27:34.938Z,79.20
2018-01-08T21:30:06.450Z,79.30
2018-01-08T21:32:36.081Z,79.30
2018-01-08T21:35:05.744Z,79.40
2018-01-08T21:37:33.710Z,79.40
2018-01-08T21:40:02.011Z,79.70
2018-01-08T21:42:31.933Z,79.70
2018-01-08T21:45:05.058Z,79.80
2018-01-08T21:47:34.655Z,79.80
2018-01-08T21:50:05.610Z,79.90
2018-01-08T21:56:36.936Z,80.00
2018-01-08T22:02:28.927Z,80.20
2018-01-08T22:04:59.380Z,79.90
2018-01-08T22:10:28.216Z,80.10
2018-01-08T22:15:57.361Z,80.20
2018-01-08T22:18:26.237Z,80.30
2018-01-08T22:20:58.084Z,80.30
2018-01-08T22:23:33.366Z,80.30
2018-01-08T22:26:06.865Z,80.10
2018-01-08T22:28:35.201Z,80.10
2018-01-08T22:31:03.169Z,80.10
2018-01-08T22:33:32.504Z,80.00
2018-01-08T22:36:01.757Z,79.80
2018-01-08T22:38:31.156Z,79.90
2018-01-08T22:41:00.050Z,80.10
2018-01-08T22:43:28.865Z,80.30
2018-01-08T22:45:58.150Z,80.20
2018-01-08T22:48:38.793Z,80.30
2018-01-08T22:51:17.971Z,80.40
2018-01-08T22:53:50.447Z,80.30
2018-01-08T22:56:18.520Z,80.20
2018-01-08T22:58:46.460Z,80.10
2018-01-08T23:01:29.666Z,80.10
2018-01-08T23:03:57.877Z,79.80
2018-01-08T23:06:30.187Z,79.70
2018-01-08T23:08:58.314Z,79.60
2018-01-08T23:11:27.809Z,79.80
2018-01-08T23:13:56.213Z,80.00
2018-01-08T23:16:33.374Z,80.10
2018-01-08T23:19:40.408Z,80.10
2018-01-08T23:25:31.118Z,80.20
2018-01-08T23:28:03.058Z,80.20
2018-01-08T23:30:37.740Z,80.20
2018-01-08T23:33:08.143Z,80.30
2018-01-08T23:35:36.874Z,80.20
2018-01-08T23:38:07.753Z,80.20
2018-01-08T23:40:36.529Z,79.60
2018-01-08T23:43:06.165Z,79.50
2018-01-08T23:45:34.292Z,79.50
2018-01-08T23:48:02.771Z,79.60
2018-01-08T23:50:31.367Z,79.50
2018-01-08T23:52:59.295Z,79.80
2018-01-08T23:55:28.896Z,79.80
2018-01-08T23:58:15.936Z,79.70
